Flight Track Log - Related Links

Times and Time Zones

All times are in EDT time to prevent confusion due to time zone crossing. See the RAX1073 flight status page for this flight to view local times or setup timezone preferences in your user account.

Time Position Orientation Groundspeed Altitude Reporting Facility
EDT Latitude Longitude Course Direction KTS MPH feet Rate Location/Type
Tue 12:40:32 PM 41.8667 -88.3167 255° West 183 211 4,400  Level Chicago TRACON
Tue 12:41:38 PM 41.8586 -88.3978 262° West 213 245 6,100 2,016 Climbing Chicago Center
Tue 12:42:40 PM 41.8611 -88.4875 272° West 242 278 8,700 2,565 Climbing Chicago Center
Tue 12:43:42 PM 41.8661 -88.5836 274° West 256 295 11,400 2,274 Climbing Chicago Center
Tue 12:44:44 PM 41.8686 -88.6864 272° West 270 311 13,400 2,226 Climbing Chicago Center
Tue 12:45:00 PM 41.5483 -89.6923 255° West  Level FlightAware Approximate
Tue 12:45:46 PM 41.8536 -88.7986 260° West 302 348 16,000  Level Chicago Center
Tue 12:46:48 PM 41.8167 -88.9228 248° West 303 349 19,000 2,516 Climbing Chicago Center
Tue 12:47:50 PM 41.7842 -89.0300 248° West 310 357 21,200 1,984 Climbing Chicago Center
Tue 12:48:52 PM 41.7494 -89.1414 247° West 323 372 23,100 1,355 Climbing Chicago Center
Tue 12:49:54 PM 41.7247 -89.2650 255° West 346 398 24,000 823 Climbing Chicago Center
Tue 12:50:56 PM 41.7206 -89.3881 267° West 335 386 24,800 1,355 Climbing Chicago Center
Tue 12:51:58 PM 41.7100 -89.5425 265° West 347 399 26,800 1,790 Climbing Chicago Center
Tue 12:53:00 PM 41.6931 -89.6789 261° West 359 413 28,500 1,694 Climbing Chicago Center
Tue 12:54:02 PM 41.6417 -89.7986 240° Southwest 373 429 30,300 1,694 Climbing Chicago Center
Tue 12:55:04 PM 41.5886 -89.9144 239° Southwest 369 425 32,000 1,548 Climbing Chicago Center
Tue 12:56:06 PM 41.5372 -90.0314 240° Southwest 366 421 33,500 1,258 Climbing Chicago Center
Tue 12:57:08 PM 41.4844 -90.1503 239° Southwest 373 429 34,600 968 Climbing Chicago Center
Tue 12:58:10 PM 41.4297 -90.2722 239° Southwest 382 440 35,500 1,016 Climbing Chicago Center
Tue 12:59:12 PM 41.3628 -90.4203 239° Southwest 390 449 36,700 968 Climbing Chicago Center
Tue 01:00:14 PM 41.3056 -90.5428 238° Southwest 392 451 37,500 829 Climbing Chicago Center
Tue 01:01:15 PM 41.2450 -90.6717 238° Southwest 413 475 38,400 878 Climbing Chicago Center
Tue 01:02:17 PM 41.1872 -90.7942 238° Southwest 399 459 39,300 726 Climbing Chicago Center
Tue 01:03:19 PM 41.1286 -90.9153 237° Southwest 392 451 39,900 339 Climbing Chicago Center
Tue 01:04:21 PM 41.0547 -91.0639 237° Southwest 403 464 40,000 48 Climbing Chicago Center
Tue 01:05:23 PM 40.9900 -91.1922 236° Southwest 416 479 40,000 48 Level Chicago Center
Tue 01:06:25 PM 40.9361 -91.3100 239° Southwest 418 481 40,100 290 Climbing Chicago Center
Tue 01:07:27 PM 40.8681 -91.4692 241° Southwest 419 482 40,600 581 Climbing Chicago Center
Tue 01:08:29 PM 40.8094 -91.5972 239° Southwest 414 476 41,300 581 Climbing Chicago Center
Tue 01:09:31 PM 40.7525 -91.7250 240° Southwest 408 470 41,800 484 Climbing Chicago Center
Tue 01:10:33 PM 40.6939 -91.8514 239° Southwest 407 468 42,300 387 Climbing Chicago Center
Tue 01:11:35 PM 40.6336 -91.9747 237° Southwest 405 466 42,600 250 Climbing Chicago Center
Tue 01:12:33 PM 40.5717 -92.0969 236° Southwest 403 464 42,800 200 Climbing Kansas City Center
Tue 01:13:35 PM 40.5117 -92.2169 237° Southwest 399 459 43,000 97 Climbing Kansas City Center
Tue 01:14:37 PM 40.4406 -92.3569 236° Southwest 399 459 43,000  Level Kansas City Center
Tue 01:15:39 PM 40.3789 -92.4792 237° Southwest 401 461 43,000  Level Kansas City Center
Tue 01:16:41 PM 40.3117 -92.6131 237° Southwest 404 465 43,000  Level Kansas City Center
Tue 01:17:43 PM 40.2558 -92.7336 239° Southwest 405 466 43,000  Level Kansas City Center
Tue 01:18:45 PM 40.1825 -92.8689 235° Southwest 407 468 43,000  Level Kansas City Center
Tue 01:19:47 PM 40.1231 -92.9900 237° Southwest 410 472 43,000  Level Kansas City Center
Tue 01:20:49 PM 40.0625 -93.1136 237° Southwest 411 473 43,000  Level Kansas City Center
Tue 01:21:51 PM 39.9886 -93.2636 237° Southwest 412 474 43,000  Level Kansas City Center
Tue 01:22:53 PM 39.9261 -93.3872 237° Southwest 412 474 43,000  Level Kansas City Center
Tue 01:23:56 PM 39.8656 -93.5122 238° Southwest 412 474 43,000  Level Kansas City Center
Tue 01:24:57 PM 39.8050 -93.6358 238° Southwest 410 472 43,000  Level Kansas City Center
Tue 01:25:59 PM 39.7389 -93.7703 237° Southwest 410 472 43,000  Level Kansas City Center
Tue 01:27:02 PM 39.6714 -93.9097 238° Southwest 408 470 43,000  Level Kansas City Center
Tue 01:28:04 PM 39.6122 -94.0267 237° Southwest 405 466 43,000  Level Kansas City Center
Tue 01:29:06 PM 39.5528 -94.1428 236° Southwest 404 465 43,000  Level Kansas City Center
Tue 01:30:08 PM 39.4825 -94.2792 236° Southwest 406 467 43,000  Level Kansas City Center
Tue 01:31:10 PM 39.4236 -94.3956 237° Southwest 403 464 43,000  Level Kansas City Center
Tue 01:32:12 PM 39.3542 -94.5319 237° Southwest 405 466 43,000  Level Kansas City Center
Tue 01:33:14 PM 39.2956 -94.6492 237° Southwest 405 466 43,000  Level Kansas City Center
Tue 01:34:16 PM 39.2256 -94.7850 236° Southwest 404 465 43,000  Level Kansas City Center
Tue 01:35:18 PM 39.1617 -94.8981 234° Southwest 406 467 43,000  Level Kansas City Center
Tue 01:36:20 PM 39.0858 -95.0308 234° Southwest 407 468 43,000  Level Kansas City Center
Tue 01:37:22 PM 39.0183 -95.1519 234° Southwest 408 470 43,000  Level Kansas City Center
Tue 01:38:24 PM 38.9575 -95.2603 234° Southwest 408 470 43,000 48 Level Kansas City Center
Tue 01:39:26 PM 38.8828 -95.3936 234° Southwest 409 471 43,100  Climbing Kansas City Center
Tue 01:40:28 PM 38.8189 -95.5081 234° Southwest 410 472 43,000 -48 Descending Kansas City Center
Tue 01:41:30 PM 38.7453 -95.6433 235° Southwest 414 476 43,000  Level Kansas City Center
Tue 01:42:32 PM 38.6833 -95.7608 236° Southwest 415 478 43,000  Level Kansas City Center
Tue 01:43:34 PM 38.6117 -95.8972 236° Southwest 414 476 43,000  Level Kansas City Center
Tue 01:44:36 PM 38.5497 -96.0125 236° Southwest 412 474 43,000  Level Kansas City Center
Tue 01:45:38 PM 38.4869 -96.1267 235° Southwest 411 473 43,000  Level Kansas City Center
Tue 01:46:40 PM 38.4103 -96.2606 234° Southwest 415 478 43,000  Level Kansas City Center
Tue 01:47:42 PM 38.3458 -96.3736 234° Southwest 413 475 43,000  Level Kansas City Center
Tue 01:48:44 PM 38.2800 -96.4894 234° Southwest 417 480 43,000  Level Kansas City Center
Tue 01:49:46 PM 38.1983 -96.6336 234° Southwest 416 479 43,000  Level Kansas City Center
Tue 01:50:48 PM 38.1297 -96.7525 234° Southwest 417 480 43,000  Level Kansas City Center
Tue 01:51:50 PM 38.0606 -96.8736 234° Southwest 422 486 43,000  Level Kansas City Center
Tue 01:52:52 PM 37.9919 -96.9936 234° Southwest 420 483 43,000  Level Kansas City Center
Tue 01:53:54 PM 37.9222 -97.1150 234° Southwest 424 488 43,000  Level Kansas City Center
Tue 01:54:56 PM 37.8542 -97.2367 235° Southwest 423 487 43,000 48 Level Kansas City Center
Tue 01:55:58 PM 37.7719 -97.3831 235° Southwest 423 487 43,100  Climbing Kansas City Center
Tue 01:57:00 PM 37.7044 -97.5058 235° Southwest 424 488 43,000 -48 Descending Kansas City Center
Tue 01:58:02 PM 37.6325 -97.6275 233° Southwest 425 489 43,000  Level Kansas City Center
Tue 01:59:05 PM 37.5606 -97.7456 232° Southwest 424 488 43,000  Level Kansas City Center
Tue 02:00:07 PM 37.4856 -97.8653 232° Southwest 431 496 43,000  Level Kansas City Center
Tue 02:01:09 PM 37.4114 -97.9817 231° Southwest 426 490 43,000  Level Kansas City Center
Tue 02:02:11 PM 37.3364 -98.0975 231° Southwest 425 489 43,000  Level Kansas City Center
Tue 02:03:13 PM 37.2633 -98.2136 232° Southwest 424 488 43,000  Level Kansas City Center
Tue 02:04:15 PM 37.1758 -98.3528 232° Southwest 423 487 43,000  Level Kansas City Center
Tue 02:05:17 PM 37.1019 -98.4681 231° Southwest 423 487 43,000  Level Kansas City Center
Tue 02:06:19 PM 37.0317 -98.5783 231° Southwest 422 486 43,000  Level Kansas City Center
Tue 02:07:21 PM 36.9606 -98.6944 233° Southwest 420 483 43,000  Level Kansas City Center
Tue 02:08:23 PM 36.8919 -98.8128 234° Southwest 420 483 43,000  Level Kansas City Center
Tue 02:09:25 PM 36.8100 -98.9519 234° Southwest 416 479 43,000  Level Kansas City Center
Tue 02:10:27 PM 36.7422 -99.0669 234° Southwest 413 475 43,000  Level Kansas City Center
Tue 02:11:29 PM 36.6747 -99.1833 234° Southwest 415 478 43,000  Level Kansas City Center
Tue 02:12:31 PM 36.6064 -99.2981 233° Southwest 414 476 43,000  Level Kansas City Center
Tue 02:13:33 PM 36.5375 -99.4122 233° Southwest 413 475 43,000  Level Kansas City Center
Tue 02:14:35 PM 36.4703 -99.5267 234° Southwest 412 474 43,000  Level Kansas City Center
Tue 02:15:37 PM 36.3894 -99.6653 234° Southwest 414 476 43,000  Level Kansas City Center
Tue 02:16:39 PM 36.3231 -99.7806 234° Southwest 413 475 43,000  Level Kansas City Center
Tue 02:17:41 PM 36.2528 -99.8936 232° Southwest 414 476 43,000  Level Kansas City Center
Tue 02:18:43 PM 36.1775 -100.0061 230° Southwest 423 487 43,000  Level Kansas City Center
Tue 02:19:45 PM 36.1053 -100.1178 231° Southwest 419 482 43,000  Level Kansas City Center
Tue 02:20:21 PM 36.0633 -100.1842 232° Southwest 415 478 43,000 61 Level Albuquerque Center
Tue 02:21:23 PM 35.9769 -100.3175 231° Southwest 414 476 43,100  Climbing Albuquerque Center
Tue 02:22:25 PM 35.9053 -100.4297 232° Southwest 415 478 43,000 -48 Descending Albuquerque Center
Tue 02:23:27 PM 35.8322 -100.5425 231° Southwest 417 480 43,000  Level Albuquerque Center
Tue 02:24:29 PM 35.7622 -100.6558 233° Southwest 415 478 43,000  Level Albuquerque Center
Tue 02:25:31 PM 35.6892 -100.7761 233° Southwest 416 479 43,000  Level Albuquerque Center
Tue 02:26:32 PM 35.6186 -100.8889 232° Southwest 416 479 43,000  Level Albuquerque Center
Tue 02:27:34 PM 35.5486 -101.0008 232° Southwest 414 476 43,000  Level Albuquerque Center
Tue 02:28:36 PM 35.4772 -101.1114 232° Southwest 414 476 43,000  Level Albuquerque Center
Tue 02:29:38 PM 35.4058 -101.2222 232° Southwest 413 475 43,000  Level Albuquerque Center
Tue 02:30:39 PM 35.3250 -101.3528 233° Southwest 415 478 43,000  Level Albuquerque Center
Tue 02:31:41 PM 35.2586 -101.4650 234° Southwest 409 471 43,000  Level Albuquerque Center
Tue 02:32:43 PM 35.1858 -101.5736 231° Southwest 410 472 43,000  Level Albuquerque Center
Tue 02:33:45 PM 35.1119 -101.6781 229° Southwest 443 510 43,000  Level Albuquerque Center
Tue 02:34:47 PM 35.0272 -101.8081 232° Southwest 420 483 43,000  Level Albuquerque Center
Tue 02:35:48 PM 34.9600 -101.9103 231° Southwest 407 468 43,000 49 Level Albuquerque Center
Tue 02:36:50 PM 34.8903 -102.0186 232° Southwest 406 467 43,100  Climbing Albuquerque Center
Tue 02:37:52 PM 34.8206 -102.1272 232° Southwest 407 468 43,000 -48 Descending Albuquerque Center
Tue 02:38:54 PM 34.7517 -102.2364 232° Southwest 408 470 43,000  Level Albuquerque Center
Tue 02:39:55 PM 34.6814 -102.3450 232° Southwest 408 470 43,000  Level Albuquerque Center
Tue 02:40:57 PM 34.5944 -102.4717 230° Southwest 408 470 43,000  Level Albuquerque Center
Tue 02:41:59 PM 34.5228 -102.5775 231° Southwest 407 468 43,000 48 Level Albuquerque Center
Tue 02:43:01 PM 34.4469 -102.6783 228° Southwest 405 466 43,100  Climbing Albuquerque Center
Tue 02:44:02 PM 34.3767 -102.7853 231° Southwest 405 466 43,000 -49 Descending Albuquerque Center
Tue 02:45:04 PM 34.3058 -102.8903 231° Southwest 405 466 43,000  Level Albuquerque Center
Tue 02:46:06 PM 34.2317 -102.9981 230° Southwest 404 465 43,000  Level Albuquerque Center
Tue 02:47:08 PM 34.1583 -103.1050 230° Southwest 410 472 43,000  Level Albuquerque Center
Tue 02:48:09 PM 34.0856 -103.2056 229° Southwest 406 467 43,000  Level Albuquerque Center
Tue 02:49:11 PM 34.0128 -103.3056 229° Southwest 401 461 43,000  Level Albuquerque Center
Tue 02:50:13 PM 33.9275 -103.4250 229° Southwest 397 457 43,000  Level Albuquerque Center
Tue 02:51:15 PM 33.8547 -103.5233 228° Southwest 396 456 43,000  Level Albuquerque Center
Tue 02:52:16 PM 33.7811 -103.6247 229° Southwest 399 459 43,000  Level Albuquerque Center
Tue 02:53:18 PM 33.6953 -103.7450 229° Southwest 407 468 43,000  Level Albuquerque Center
Tue 02:54:20 PM 33.6242 -103.8436 229° Southwest 393 452 43,000  Level Albuquerque Center
Tue 02:55:22 PM 33.5506 -103.9439 229° Southwest 399 459 43,000  Level Albuquerque Center
Tue 02:56:23 PM 33.4717 -104.0528 229° Southwest 401 461 43,000  Level Albuquerque Center
Tue 02:57:25 PM 33.3981 -104.1519 228° Southwest 399 459 43,000  Level Albuquerque Center
Tue 02:58:27 PM 33.3247 -104.2533 229° Southwest 403 464 43,000  Level Albuquerque Center
Tue 02:59:29 PM 33.2533 -104.3483 228° Southwest 400 460 43,000  Level Albuquerque Center
Tue 03:00:30 PM 33.1675 -104.4603 228° Southwest 406 467 43,000  Level Albuquerque Center
Tue 03:01:32 PM 33.0928 -104.5614 229° Southwest 405 466 43,000  Level Albuquerque Center
Tue 03:02:34 PM 33.0128 -104.6686 228° Southwest 402 463 43,000  Level Albuquerque Center
Tue 03:04:38 PM 32.8622 -104.8678 228° Southwest 404 465 43,000 32 Level Albuquerque Center
Tue 03:05:39 PM 32.7817 -104.9739 228° Southwest 401 461 43,100  Climbing Albuquerque Center
Tue 03:06:41 PM 32.7069 -105.0731 228° Southwest 403 464 43,000 -48 Descending Albuquerque Center
Tue 03:07:43 PM 32.6342 -105.1761 230° Southwest 411 473 43,000  Level Albuquerque Center
Tue 03:08:45 PM 32.5608 -105.2744 229° Southwest 404 465 43,000  Level Albuquerque Center
Tue 03:09:46 PM 32.4850 -105.3736 228° Southwest 406 467 43,000  Level Albuquerque Center
Tue 03:10:48 PM 32.4089 -105.4744 228° Southwest 409 471 43,000  Level Albuquerque Center
Tue 03:11:50 PM 32.3169 -105.5956 228° Southwest 412 474 43,000  Level Albuquerque Center
Tue 03:12:52 PM 32.2419 -105.6947 228° Southwest 408 470 43,000  Level Albuquerque Center
Tue 03:13:54 PM 32.1681 -105.7992 230° Southwest 415 478 43,000  Level Albuquerque Center
Tue 03:14:55 PM 32.0939 -105.9022 230° Southwest 413 475 43,000  Level Albuquerque Center
Tue 03:15:57 PM 32.0261 -106.0006 231° Southwest 414 476 43,000  Level Albuquerque Center
Tue 03:16:59 PM 31.9358 -106.1244 229° Southwest 414 476 43,000  Level Albuquerque Center
Tue 03:18:01 PM 31.8719 -106.2114 229° Southwest 414 476 43,000  Level Albuquerque Center
Tue 03:19:02 PM 31.7761 -106.3258 225° Southwest 411 473 43,000  Level Albuquerque Center
Tue 03:20:04 PM 31.6869 -106.4097 219° Southwest 410 472 43,000  Level Albuquerque Center
Tue 03:21:06 PM 31.6039 -106.5031 224° Southwest 414 476 43,000  Level Albuquerque Center
Tue 03:23:00 PM 31.4720 -106.6909 236° Southwest  Level FlightAware Approximate
Tue 03:30:00 PM 31.0318 -107.4181 235° Southwest  Level FlightAware Approximate
Tue 03:31:00 PM 30.9681 -107.5211 234° Southwest  Level FlightAware Approximate
Tue 03:32:00 PM 30.9044 -107.6240 234° Southwest  Level FlightAware Approximate
Tue 03:33:00 PM 30.8406 -107.7267 234° Southwest  Level FlightAware Approximate
Tue 03:34:00 PM 30.7768 -107.8293 234° Southwest  Level FlightAware Approximate
Tue 03:35:00 PM 30.7128 -107.9318 234° Southwest  Level FlightAware Approximate
Tue 03:36:00 PM 30.6488 -108.0341 234° Southwest  Level FlightAware Approximate
Tue 03:37:00 PM 30.5846 -108.1363 234° Southwest  Level FlightAware Approximate
Tue 03:38:00 PM 30.5204 -108.2383 234° Southwest  Level FlightAware Approximate
Tue 03:39:00 PM 30.4562 -108.3402 234° Southwest  Level FlightAware Approximate
Tue 03:40:00 PM 30.3967 -108.4459 237° Southwest  Level FlightAware Approximate
Tue 03:41:00 PM 30.3317 -108.5467 229° Southwest  Level FlightAware Approximate
Tue 03:42:00 PM 30.2656 -108.6468 234° Southwest  Level FlightAware Approximate
Tue 03:43:00 PM 30.2009 -108.7480 234° Southwest  Level FlightAware Approximate
Tue 03:44:00 PM 30.1362 -108.8492 233° Southwest  Level FlightAware Approximate
Tue 03:45:00 PM 30.0713 -108.9502 233° Southwest  Level FlightAware Approximate
Tue 03:46:00 PM 30.0070 -109.0516 234° Southwest  Level FlightAware Approximate
Tue 03:47:00 PM 29.9429 -109.1532 234° Southwest  Level FlightAware Approximate
Tue 03:48:00 PM 29.8788 -109.2546 234° Southwest  Level FlightAware Approximate
Tue 03:49:00 PM 29.8133 -109.3549 231° Southwest  Level FlightAware Approximate
Tue 03:50:00 PM 29.7455 -109.4529 231° Southwest  Level FlightAware Approximate
Tue 03:51:00 PM 29.6776 -109.5509 231° Southwest  Level FlightAware Approximate
Tue 03:52:00 PM 29.6149 -109.6531 235° Southwest  Level FlightAware Approximate
Tue 03:53:00 PM 29.5531 -109.7561 235° Southwest  Level FlightAware Approximate
Tue 03:54:00 PM 29.4899 -109.8579 233° Southwest  Level FlightAware Approximate
Tue 03:55:00 PM 29.4247 -109.9581 233° Southwest  Level FlightAware Approximate
Tue 03:56:00 PM 29.3595 -110.0581 233° Southwest  Level FlightAware Approximate
Tue 03:57:00 PM 29.2942 -110.1579 233° Southwest  Level FlightAware Approximate
Tue 03:58:00 PM 29.2285 -110.2573 233° Southwest  Level FlightAware Approximate
Tue 03:59:00 PM 29.1624 -110.3564 233° Southwest  Level FlightAware Approximate
Tue 04:00:00 PM 29.0964 -110.4555 233° Southwest  Level FlightAware Approximate
Tue 04:01:00 PM 29.0831 -110.5658 286° West  Level FlightAware Approximate
Tue 04:02:00 PM 29.0834 -110.6904 270° West  Level FlightAware Approximate
Tue 04:03:00 PM 29.0833 -110.8149 270° West  Level FlightAware Approximate
Tue 04:04:00 PM 29.0833 -110.9394 270° West  Level FlightAware Approximate
Tue 04:05:00 PM 29.1000 -111.0500 281° West  Level FlightAware Approximate
Tue 04:06:00 PM 29.0959 -111.0479 281° West  Level Estimated
Tue 04:07:00 PM 29.1000 -111.0500 281° West  Level FlightAware Approximate
Tue 04:08:00 PM 29.0959 -111.0479 281° West  Level Estimated
Tue 04:09:00 PM 29.1000 -111.0500 281° West  Level FlightAware Approximate
Tue 04:10:00 PM 29.0959 -111.0479 281° West  Level Estimated
Tue 04:11:00 PM 29.1000 -111.0500 281° West  Level FlightAware Approximate
Tue 04:12:00 PM 29.0959 -111.0479 281° West  Level Estimated
Tue 04:13:00 PM 29.1000 -111.0500 281° West  Level FlightAware Approximate
Tue 04:14:00 PM 29.0959 -111.0479 281° West  Level Estimated
Tue 04:15:00 PM 29.1000 -111.0500 281° West  Level FlightAware Approximate
Tue 04:16:00 PM 29.0959 -111.0479 281° West  Level Estimated
Tue 04:17:00 PM 29.1000 -111.0500 281° West  Level FlightAware Approximate
Tue 04:18:00 PM 29.0959 -111.0479 281° West  Level Estimated
Tue 04:19:00 PM 29.1000 -111.0500 281° West  Level FlightAware Approximate
Tue 04:20:00 PM 29.0959 -111.0479 281° West  Level Estimated
Tue 04:21:00 PM 29.1000 -111.0500 281° West  Level FlightAware Approximate
Tue 04:22:00 PM 29.0959 -111.0479 281° West  Level Estimated
Tue 04:23:00 PM 29.1000 -111.0500 281° West  Level FlightAware Approximate
Tue 04:24:00 PM 29.0959 -111.0479 281° West  Level Estimated

Login

Don't have an account? Register now (free) for customized features, flight alerts, and more!